Time,TemperatureF,DewpointF,PressureIn,WindDirection,WindDirectionDegrees,WindSpeedMPH,WindSpeedGustMPH,Humidity,HourlyPrecipIn,Conditions,Clouds,dailyrainin,SoftwareType,DateUTC
2013-07-11 00:42:00,76.0,75.0,30.04,SSE,150,2.0,3.0,97,2.07,,,-99.99,,2013-07-11 04:42:00,
2013-07-11 01:02:00,76.0,75.0,30.04,SSE,153,3.0,3.0,97,2.07,,,-99.99,,2013-07-11 05:02:00,
2013-07-11 01:43:00,75.0,75.0,30.03,SSE,156,6.0,8.0,100,2.07,,,-99.99,,2013-07-11 05:43:00,
2013-07-11 01:52:00,75.0,75.0,30.02,SE,143,5.0,7.0,100,2.07,,,-99.99,,2013-07-11 05:52:00,
2013-07-11 02:12:00,75.0,74.0,30.02,SSE,153,4.0,6.0,98,2.07,,,-99.99,,2013-07-11 06:12:00,
2013-07-11 02:22:00,75.0,74.0,30.01,SSE,153,5.0,9.0,96,2.07,,,-99.99,,2013-07-11 06:22:00,
2013-07-11 02:32:00,75.0,73.0,30.01,SSE,149,6.0,9.0,95,2.07,,,-99.99,,2013-07-11 06:32:00,
2013-07-11 02:43:00,75.0,73.0,30.01,SE,141,6.0,9.0,95,2.07,,,-99.99,,2013-07-11 06:43:00,
2013-07-11 02:52:00,75.0,73.0,30.00,SSE,155,6.0,9.0,94,2.07,,,-99.99,,2013-07-11 06:52:00,
2013-07-11 03:02:00,75.0,73.0,30.00,SSE,166,6.0,9.0,95,2.07,,,-99.99,,2013-07-11 07:02:00,
2013-07-11 03:12:00,75.0,73.0,29.99,SSE,150,4.0,8.0,95,2.07,,,-99.99,,2013-07-11 07:12:00,
2013-07-11 03:32:00,74.0,73.0,29.99,SSE,163,4.0,7.0,97,2.07,,,-99.99,,2013-07-11 07:32:00,
2013-07-11 03:45:00,74.0,73.0,29.99,SE,145,5.0,7.0,98,2.07,,,-99.99,,2013-07-11 07:45:00,
2013-07-11 03:53:00,74.0,73.0,29.99,SSE,158,5.0,7.0,98,2.07,,,-99.99,,2013-07-11 07:53:00,
2013-07-11 04:02:00,74.0,73.0,29.99,SSE,148,4.0,7.0,98,2.07,,,-99.99,,2013-07-11 08:02:00,
2013-07-11 04:12:00,74.0,74.0,30.00,SSE,159,4.0,6.0,99,2.07,,,-99.99,,2013-07-11 08:12:00,
2013-07-11 04:22:00,74.0,73.0,30.00,SSE,152,4.0,5.0,98,2.07,,,-99.99,,2013-07-11 08:22:00,
2013-07-11 04:34:00,74.0,74.0,29.99,SE,139,6.0,7.0,100,2.07,,,-99.99,,2013-07-11 08:34:00,
2013-07-11 04:43:00,74.0,74.0,29.99,SE,145,5.0,7.0,100,2.07,,,-99.99,,2013-07-11 08:43:00,
2013-07-11 05:03:00,74.0,74.0,30.00,SSE,158,4.0,6.0,100,2.07,,,-99.99,,2013-07-11 09:03:00,
2013-07-11 05:12:00,74.0,74.0,29.99,SSE,160,4.0,6.0,100,2.07,,,-99.99,,2013-07-11 09:12:00,
2013-07-11 05:43:00,73.0,73.0,29.99,SSE,155,4.0,4.0,100,2.07,,,-99.99,,2013-07-11 09:43:00,
2013-07-11 05:53:00,73.0,73.0,29.99,SSE,158,4.0,6.0,100,2.07,,,-99.99,,2013-07-11 09:53:00,
2013-07-11 06:33:00,73.0,73.0,30.00,South,186,0.0,2.0,100,2.07,,,-99.99,,2013-07-11 10:33:00,
2013-07-11 06:43:00,73.0,73.0,30.01,North,0,0.0,0.0,100,2.07,,,-99.99,,2013-07-11 10:43:00,
2013-07-11 06:52:00,73.0,73.0,30.01,South,170,0.0,1.0,100,2.07,,,-99.99,,2013-07-11 10:52:00,
2013-07-11 07:32:00,74.0,74.0,30.01,South,188,3.0,4.0,100,2.07,,,-99.99,,2013-07-11 11:32:00,
2013-07-11 07:53:00,75.0,75.0,30.01,South,177,4.0,5.0,100,2.07,,,-99.99,,2013-07-11 11:53:00,
2013-07-11 08:01:00,75.0,75.0,30.01,South,187,3.0,4.0,100,2.07,,,-99.99,,2013-07-11 12:01:00,
2013-07-11 08:33:00,77.0,74.0,30.01,South,187,6.0,9.0,92,2.07,,,-99.99,,2013-07-11 12:33:00,
2013-07-11 08:54:00,78.0,73.0,30.01,South,174,6.0,9.0,85,2.07,,,-99.99,,2013-07-11 12:54:00,
2013-07-11 09:02:00,80.0,73.0,30.01,SSE,155,7.0,11.0,79,2.07,,,-99.99,,2013-07-11 13:02:00,
2013-07-11 09:13:00,80.0,72.0,30.01,SSE,156,7.0,12.0,78,2.07,,,-99.99,,2013-07-11 13:13:00,
2013-07-11 09:23:00,80.0,72.0,30.01,SSE,150,9.0,13.0,77,2.07,,,-99.99,,2013-07-11 13:23:00,
2013-07-11 09:45:00,81.0,72.0,30.01,SSE,158,8.0,12.0,73,2.07,,,-99.99,,2013-07-11 13:45:00,
2013-07-11 10:05:00,83.0,73.0,30.01,South,186,6.0,11.0,72,2.07,,,-99.99,,2013-07-11 14:05:00,
2013-07-11 10:15:00,84.0,73.0,30.01,South,183,7.0,11.0,70,2.07,,,-99.99,,2013-07-11 14:15:00,
2013-07-11 10:24:00,83.0,72.0,30.01,South,191,8.0,11.0,69,2.07,,,-99.99,,2013-07-11 14:24:00,
2013-07-11 10:45:00,84.0,70.0,30.01,South,188,9.0,12.0,63,2.07,,,-99.99,,2013-07-11 14:45:00,
2013-07-11 11:05:00,84.0,70.0,30.01,South,190,8.0,12.0,63,2.07,,,-99.99,,2013-07-11 15:05:00,
2013-07-11 11:13:00,85.0,70.0,30.01,South,170,8.0,12.0,61,2.07,,,-99.99,,2013-07-11 15:13:00,
2013-07-11 11:37:00,85.0,69.0,30.01,SSW,198,8.0,12.0,58,2.07,,,-99.99,,2013-07-11 15:37:00,
2013-07-11 12:14:00,88.0,69.0,30.01,SSW,195,7.0,13.0,53,2.07,,,-99.99,,2013-07-11 16:14:00,
2013-07-11 12:35:00,87.0,68.0,30.01,SW,225,7.0,9.0,54,2.07,,,-99.99,,2013-07-11 16:35:00,
2013-07-11 12:46:00,88.0,68.0,30.01,SSW,195,8.0,12.0,51,2.07,,,-99.99,,2013-07-11 16:46:00,
2013-07-11 12:56:00,88.0,66.0,30.00,SSW,198,7.0,10.0,49,2.07,,,-99.99,,2013-07-11 16:56:00,
2013-07-11 13:46:00,89.0,67.0,29.98,SSW,195,6.0,10.0,49,2.07,,,-99.99,,2013-07-11 17:46:00,
2013-07-11 13:52:00,89.0,65.0,29.98,South,187,7.0,11.0,46,2.07,,,-99.99,,2013-07-11 17:52:00,
2013-07-11 14:05:00,89.0,65.0,29.98,SSW,207,6.0,11.0,46,2.07,,,-99.99,,2013-07-11 18:05:00,
2013-07-11 14:45:00,89.0,67.0,29.96,SW,232,5.0,7.0,48,2.07,,,-99.99,,2013-07-11 18:45:00,
2013-07-11 15:56:00,81.0,73.0,29.97,WSW,255,11.0,15.0,77,2.07,,,-99.99,,2013-07-11 19:56:00,
2013-07-11 16:53:00,82.0,72.0,29.95,SSE,160,4.0,7.0,72,2.07,,,-99.99,,2013-07-11 20:53:00,
2013-07-11 17:45:00,81.0,71.0,29.94,South,180,5.0,7.0,72,2.07,,,-99.99,,2013-07-11 21:45:00,
2013-07-11 18:05:00,82.0,72.0,29.94,SSW,197,3.0,5.0,73,2.07,,,-99.99,,2013-07-11 22:05:00,
2013-07-11 18:54:00,82.0,74.0,29.95,SW,217,4.0,6.0,77,2.07,,,-99.99,,2013-07-11 22:54:00,
2013-07-11 19:06:00,82.0,73.0,29.94,SSW,205,3.0,5.0,75,2.07,,,-99.99,,2013-07-11 23:06:00,
2013-07-11 19:13:00,82.0,74.0,29.94,South,191,4.0,5.0,77,2.07,,,-99.99,,2013-07-11 23:13:00,
2013-07-11 19:35:00,82.0,74.0,29.94,South,170,2.0,5.0,76,2.07,,,-99.99,,2013-07-11 23:35:00,
2013-07-11 19:46:00,81.0,73.0,29.94,SSW,195,3.0,5.0,77,2.07,,,-99.99,,2013-07-11 23:46:00,
2013-07-11 19:55:00,81.0,73.0,29.95,South,187,1.0,3.0,76,2.07,,,-99.99,,2013-07-11 23:55:00,
2013-07-11 20:05:00,82.0,75.0,29.95,SSE,160,0.0,1.0,79,2.07,,,-99.99,,2013-07-12 00:05:00,
2013-07-11 20:25:00,81.0,74.0,29.95,SSW,197,2.0,4.0,80,2.07,,,-99.99,,2013-07-12 00:25:00,
2013-07-11 20:44:00,80.0,74.0,29.95,South,170,4.0,6.0,82,2.07,,,-99.99,,2013-07-12 00:44:00,
2013-07-11 20:55:00,80.0,74.0,29.95,SSE,153,5.0,7.0,82,2.07,,,-99.99,,2013-07-12 00:55:00,
2013-07-11 21:05:00,79.0,74.0,29.96,SE,132,4.0,7.0,84,2.07,,,-99.99,,2013-07-12 01:05:00,
2013-07-11 21:13:00,79.0,74.0,29.96,SSE,156,3.0,5.0,84,2.07,,,-99.99,,2013-07-12 01:13:00,
2013-07-11 21:26:00,79.0,73.0,29.96,SSE,160,3.0,4.0,82,2.07,,,-99.99,,2013-07-12 01:26:00,
2013-07-11 21:46:00,79.0,74.0,29.96,North,0,0.0,0.0,86,2.07,,,-99.99,,2013-07-12 01:46:00,
2013-07-11 22:45:00,78.0,74.0,29.96,WSW,249,3.0,3.0,89,2.07,,,-99.99,,2013-07-12 02:45:00,
2013-07-11 23:37:00,78.0,75.0,29.96,South,172,4.0,6.0,91,2.07,,,-99.99,,2013-07-12 03:37:00,
2013-07-11 23:44:00,78.0,75.0,29.96,South,180,4.0,5.0,92,2.07,,,-99.99,,2013-07-12 03:44:00,